sensor_id;sensor_type;location;lat;lon;timestamp;pressure;altitude;pressure_sealevel;temperature;humidity
6506;BME280;3286;49.858;8.768;2023-07-24T00:02:22;98393.75;;;24.21;37.10
6506;BME280;3286;49.858;8.768;2023-07-24T00:04:49;98394.88;;;23.93;37.82
6506;BME280;3286;49.858;8.768;2023-07-24T00:07:16;98398.16;;;23.67;38.10
6506;BME280;3286;49.858;8.768;2023-07-24T00:09:42;98409.41;;;23.59;38.28
6506;BME280;3286;49.858;8.768;2023-07-24T00:12:09;98405.97;;;23.96;37.64
6506;BME280;3286;49.858;8.768;2023-07-24T00:14:36;98405.69;;;23.65;38.32
6506;BME280;3286;49.858;8.768;2023-07-24T00:17:04;98400.97;;;23.50;38.99
6506;BME280;3286;49.858;8.768;2023-07-24T00:19:31;98394.41;;;23.68;38.70
6506;BME280;3286;49.858;8.768;2023-07-24T00:21:58;98401.06;;;23.61;38.81
6506;BME280;3286;49.858;8.768;2023-07-24T00:24:24;98387.31;;;23.95;38.17
6506;BME280;3286;49.858;8.768;2023-07-24T00:26:51;98393.97;;;23.82;38.26
6506;BME280;3286;49.858;8.768;2023-07-24T00:29:17;98382.66;;;23.52;38.81
6506;BME280;3286;49.858;8.768;2023-07-24T00:31:44;98373.50;;;23.53;39.07
6506;BME280;3286;49.858;8.768;2023-07-24T00:34:12;98372.03;;;22.46;41.35
6506;BME280;3286;49.858;8.768;2023-07-24T00:36:39;98368.16;;;22.20;42.39
6506;BME280;3286;49.858;8.768;2023-07-24T00:39:05;98363.63;;;23.32;39.80
6506;BME280;3286;49.858;8.768;2023-07-24T00:41:32;98364.72;;;22.86;40.28
6506;BME280;3286;49.858;8.768;2023-07-24T00:43:59;98366.22;;;23.49;39.31
6506;BME280;3286;49.858;8.768;2023-07-24T00:46:25;98358.34;;;23.80;38.66
6506;BME280;3286;49.858;8.768;2023-07-24T00:48:52;98361.94;;;23.25;39.81
6506;BME280;3286;49.858;8.768;2023-07-24T00:51:37;98363.00;;;23.90;38.55
6506;BME280;3286;49.858;8.768;2023-07-24T00:54:04;98359.84;;;23.33;39.48
6506;BME280;3286;49.858;8.768;2023-07-24T00:56:32;98366.00;;;23.28;39.75
6506;BME280;3286;49.858;8.768;2023-07-24T00:59:00;98357.72;;;23.67;38.66
6506;BME280;3286;49.858;8.768;2023-07-24T01:01:28;98355.94;;;23.78;38.51
6506;BME280;3286;49.858;8.768;2023-07-24T01:03:56;98356.31;;;23.92;38.32
6506;BME280;3286;49.858;8.768;2023-07-24T01:06:23;98358.66;;;23.83;38.52
6506;BME280;3286;49.858;8.768;2023-07-24T01:08:51;98358.97;;;23.87;38.46
6506;BME280;3286;49.858;8.768;2023-07-24T01:11:20;98365.47;;;23.58;39.05
6506;BME280;3286;49.858;8.768;2023-07-24T01:13:51;98367.75;;;23.44;39.33
6506;BME280;3286;49.858;8.768;2023-07-24T01:16:22;98366.81;;;23.28;39.69
6506;BME280;3286;49.858;8.768;2023-07-24T01:18:54;98373.41;;;23.43;39.63
6506;BME280;3286;49.858;8.768;2023-07-24T01:21:30;98363.19;;;23.45;39.63
6506;BME280;3286;49.858;8.768;2023-07-24T01:24:14;98355.50;;;23.59;39.16
6506;BME280;3286;49.858;8.768;2023-07-24T01:26:45;98353.16;;;23.40;39.78
6506;BME280;3286;49.858;8.768;2023-07-24T01:29:13;98339.56;;;23.57;39.11
6506;BME280;3286;49.858;8.768;2023-07-24T01:31:40;98348.19;;;23.54;38.93
6506;BME280;3286;49.858;8.768;2023-07-24T01:34:07;98344.94;;;23.52;38.98
6506;BME280;3286;49.858;8.768;2023-07-24T01:36:33;98339.94;;;23.66;38.67
6506;BME280;3286;49.858;8.768;2023-07-24T01:39:00;98341.78;;;23.66;38.43
6506;BME280;3286;49.858;8.768;2023-07-24T01:41:27;98337.94;;;23.89;38.08
6506;BME280;3286;49.858;8.768;2023-07-24T01:43:58;98332.03;;;23.92;38.42
6506;BME280;3286;49.858;8.768;2023-07-24T01:46:25;98342.53;;;23.56;38.82
6506;BME280;3286;49.858;8.768;2023-07-24T01:48:52;98338.72;;;23.84;38.26
6506;BME280;3286;49.858;8.768;2023-07-24T01:51:18;98336.75;;;23.75;38.22
6506;BME280;3286;49.858;8.768;2023-07-24T01:53:45;98325.03;;;23.58;38.79
6506;BME280;3286;49.858;8.768;2023-07-24T01:56:12;98331.22;;;23.54;38.63
6506;BME280;3286;49.858;8.768;2023-07-24T01:58:39;98335.84;;;23.64;38.57
6506;BME280;3286;49.858;8.768;2023-07-24T02:01:07;98334.50;;;23.61;38.80
6506;BME280;3286;49.858;8.768;2023-07-24T02:03:34;98333.03;;;23.48;39.25
6506;BME280;3286;49.858;8.768;2023-07-24T02:06:01;98322.28;;;23.53;39.11
6506;BME280;3286;49.858;8.768;2023-07-24T02:09:04;98299.66;;;23.54;39.06
6506;BME280;3286;49.858;8.768;2023-07-24T02:11:31;98250.06;;;23.23;39.52
6506;BME280;3286;49.858;8.768;2023-07-24T02:13:58;98224.88;;;23.07;39.81
6506;BME280;3286;49.858;8.768;2023-07-24T02:16:26;98195.50;;;23.33;39.77
6506;BME280;3286;49.858;8.768;2023-07-24T02:18:53;98210.31;;;23.03;40.20
6506;BME280;3286;49.858;8.768;2023-07-24T02:21:20;98257.97;;;21.51;45.22
6506;BME280;3286;49.858;8.768;2023-07-24T02:23:46;98269.53;;;22.48;42.23
6506;BME280;3286;49.858;8.768;2023-07-24T02:26:13;98285.81;;;21.79;43.14
6506;BME280;3286;49.858;8.768;2023-07-24T02:28:40;98282.16;;;21.68;43.49
6506;BME280;3286;49.858;8.768;2023-07-24T02:31:06;98286.56;;;22.14;41.54
6506;BME280;3286;49.858;8.768;2023-07-24T02:33:34;98291.16;;;22.36;41.18
6506;BME280;3286;49.858;8.768;2023-07-24T02:36:01;98283.09;;;22.58;40.25
6506;BME280;3286;49.858;8.768;2023-07-24T02:38:28;98296.09;;;22.89;39.84
6506;BME280;3286;49.858;8.768;2023-07-24T02:40:54;98293.94;;;22.91;39.55
6506;BME280;3286;49.858;8.768;2023-07-24T02:43:21;98284.13;;;22.52;40.43
6506;BME280;3286;49.858;8.768;2023-07-24T02:45:48;98287.53;;;22.69;40.16
6506;BME280;3286;49.858;8.768;2023-07-24T02:48:14;98288.53;;;23.18;39.31
6506;BME280;3286;49.858;8.768;2023-07-24T02:50:42;98283.28;;;22.51;40.63
6506;BME280;3286;49.858;8.768;2023-07-24T02:53:09;98273.38;;;22.79;40.13
6506;BME280;3286;49.858;8.768;2023-07-24T02:55:36;98275.97;;;22.24;40.87
6506;BME280;3286;49.858;8.768;2023-07-24T02:58:02;98279.66;;;22.63;40.26
6506;BME280;3286;49.858;8.768;2023-07-24T03:00:31;98276.59;;;22.54;40.16
6506;BME280;3286;49.858;8.768;2023-07-24T03:02:58;98278.88;;;22.45;40.31
6506;BME280;3286;49.858;8.768;2023-07-24T03:05:25;98269.75;;;22.68;40.03
6506;BME280;3286;49.858;8.768;2023-07-24T03:07:53;98278.34;;;22.65;39.76
6506;BME280;3286;49.858;8.768;2023-07-24T03:10:19;98273.69;;;22.61;39.94
6506;BME280;3286;49.858;8.768;2023-07-24T03:12:46;98265.00;;;22.53;40.36
6506;BME280;3286;49.858;8.768;2023-07-24T03:15:12;98261.06;;;22.17;41.31
6506;BME280;3286;49.858;8.768;2023-07-24T03:17:39;98257.78;;;22.54;40.50
6506;BME280;3286;49.858;8.768;2023-07-24T03:20:08;98260.19;;;22.55;40.47
6506;BME280;3286;49.858;8.768;2023-07-24T03:22:45;98260.47;;;22.54;40.53
6506;BME280;3286;49.858;8.768;2023-07-24T03:25:13;98256.41;;;22.34;40.92
6506;BME280;3286;49.858;8.768;2023-07-24T03:27:40;98260.06;;;22.45;40.42
6506;BME280;3286;49.858;8.768;2023-07-24T03:30:07;98244.88;;;22.56;40.20
6506;BME280;3286;49.858;8.768;2023-07-24T03:32:35;98245.59;;;22.29;40.85
6506;BME280;3286;49.858;8.768;2023-07-24T03:35:02;98244.94;;;21.77;42.25
6506;BME280;3286;49.858;8.768;2023-07-24T03:37:30;98241.34;;;20.74;44.69
6506;BME280;3286;49.858;8.768;2023-07-24T03:39:56;98241.50;;;20.67;44.95
6506;BME280;3286;49.858;8.768;2023-07-24T03:42:29;98243.38;;;21.13;44.17
6506;BME280;3286;49.858;8.768;2023-07-24T03:44:57;98233.44;;;21.82;42.49
6506;BME280;3286;49.858;8.768;2023-07-24T03:47:24;98210.78;;;21.78;42.08
6506;BME280;3286;49.858;8.768;2023-07-24T03:49:50;98211.25;;;21.92;42.17
6506;BME280;3286;49.858;8.768;2023-07-24T03:52:17;98207.31;;;21.99;42.07
6506;BME280;3286;49.858;8.768;2023-07-24T03:54:44;98223.41;;;21.94;42.23
6506;BME280;3286;49.858;8.768;2023-07-24T03:57:11;98218.56;;;21.74;42.76
6506;BME280;3286;49.858;8.768;2023-07-24T03:59:39;98205.81;;;21.87;42.68
6506;BME280;3286;49.858;8.768;2023-07-24T04:02:05;98209.28;;;22.04;42.10
6506;BME280;3286;49.858;8.768;2023-07-24T04:04:32;98220.97;;;21.59;43.28
6506;BME280;3286;49.858;8.768;2023-07-24T04:06:59;98201.31;;;21.92;42.87
6506;BME280;3286;49.858;8.768;2023-07-24T04:09:26;98183.19;;;22.05;42.47
6506;BME280;3286;49.858;8.768;2023-07-24T04:12:24;98187.94;;;22.20;42.35
6506;BME280;3286;49.858;8.768;2023-07-24T04:14:52;98204.91;;;21.81;42.81
6506;BME280;3286;49.858;8.768;2023-07-24T04:17:19;98207.44;;;22.10;42.14
6506;BME280;3286;49.858;8.768;2023-07-24T04:19:46;98217.44;;;22.37;41.71
6506;BME280;3286;49.858;8.768;2023-07-24T04:22:12;98207.13;;;22.28;41.96
6506;BME280;3286;49.858;8.768;2023-07-24T04:24:39;98203.44;;;22.35;41.56
6506;BME280;3286;49.858;8.768;2023-07-24T04:27:05;98202.06;;;22.32;41.55
6506;BME280;3286;49.858;8.768;2023-07-24T04:29:32;98201.31;;;22.59;41.40
6506;BME280;3286;49.858;8.768;2023-07-24T04:32:00;98202.63;;;22.12;42.15
6506;BME280;3286;49.858;8.768;2023-07-24T04:34:27;98197.22;;;22.84;41.11
6506;BME280;3286;49.858;8.768;2023-07-24T04:36:53;98205.13;;;22.41;41.92
6506;BME280;3286;49.858;8.768;2023-07-24T04:39:20;98197.84;;;22.91;40.95
6506;BME280;3286;49.858;8.768;2023-07-24T04:41:47;98209.78;;;22.73;41.57
6506;BME280;3286;49.858;8.768;2023-07-24T04:44:13;98216.28;;;22.77;41.25
6506;BME280;3286;49.858;8.768;2023-07-24T04:46:40;98213.47;;;22.94;41.31
6506;BME280;3286;49.858;8.768;2023-07-24T04:49:08;98202.31;;;22.80;41.64
6506;BME280;3286;49.858;8.768;2023-07-24T04:51:34;98197.72;;;22.81;41.56
6506;BME280;3286;49.858;8.768;2023-07-24T04:54:01;98200.44;;;23.13;41.31
6506;BME280;3286;49.858;8.768;2023-07-24T04:56:28;98198.97;;;23.00;41.48
6506;BME280;3286;49.858;8.768;2023-07-24T04:58:54;98192.88;;;23.10;41.36
6506;BME280;3286;49.858;8.768;2023-07-24T05:01:21;98183.59;;;22.96;41.60
6506;BME280;3286;49.858;8.768;2023-07-24T05:03:47;98198.56;;;23.19;41.30
6506;BME280;3286;49.858;8.768;2023-07-24T05:06:15;98207.03;;;23.28;40.93
6506;BME280;3286;49.858;8.768;2023-07-24T05:08:42;98212.72;;;23.32;41.14
6506;BME280;3286;49.858;8.768;2023-07-24T05:11:09;98203.38;;;23.12;41.54
6506;BME280;3286;49.858;8.768;2023-07-24T05:13:35;98210.50;;;22.96;41.75
6506;BME280;3286;49.858;8.768;2023-07-24T05:16:02;98216.91;;;23.22;41.62
6506;BME280;3286;49.858;8.768;2023-07-24T05:18:29;98213.25;;;23.28;41.30
6506;BME280;3286;49.858;8.768;2023-07-24T05:20:55;98196.44;;;23.21;41.51
6506;BME280;3286;49.858;8.768;2023-07-24T05:23:23;98198.63;;;23.24;41.49
6506;BME280;3286;49.858;8.768;2023-07-24T05:25:56;98191.91;;;22.89;42.05
6506;BME280;3286;49.858;8.768;2023-07-24T05:28:24;98182.91;;;23.11;41.86
6506;BME280;3286;49.858;8.768;2023-07-24T05:30:51;98172.41;;;23.47;41.11
6506;BME280;3286;49.858;8.768;2023-07-24T05:33:17;98173.88;;;23.70;40.43
6506;BME280;3286;49.858;8.768;2023-07-24T05:35:44;98176.38;;;23.87;40.29
6506;BME280;3286;49.858;8.768;2023-07-24T05:38:17;98173.97;;;23.91;40.21
6506;BME280;3286;49.858;8.768;2023-07-24T05:40:45;98180.56;;;23.63;41.16
6506;BME280;3286;49.858;8.768;2023-07-24T05:43:11;98173.91;;;23.76;40.72
6506;BME280;3286;49.858;8.768;2023-07-24T05:45:38;98182.56;;;23.83;40.75
6506;BME280;3286;49.858;8.768;2023-07-24T05:48:05;98176.38;;;23.87;40.96
6506;BME280;3286;49.858;8.768;2023-07-24T05:50:32;98181.56;;;23.99;40.99
6506;BME280;3286;49.858;8.768;2023-07-24T05:52:58;98182.56;;;23.83;41.21
6506;BME280;3286;49.858;8.768;2023-07-24T05:55:25;98194.34;;;24.25;40.60
6506;BME280;3286;49.858;8.768;2023-07-24T05:57:53;98192.41;;;24.10;40.78
6506;BME280;3286;49.858;8.768;2023-07-24T06:00:20;98195.09;;;24.05;41.37
6506;BME280;3286;49.858;8.768;2023-07-24T06:02:46;98198.72;;;24.47;40.42
6506;BME280;3286;49.858;8.768;2023-07-24T06:05:13;98199.53;;;24.47;40.60
6506;BME280;3286;49.858;8.768;2023-07-24T06:07:40;98198.38;;;24.17;41.00
6506;BME280;3286;49.858;8.768;2023-07-24T06:10:07;98199.25;;;24.43;40.56
6506;BME280;3286;49.858;8.768;2023-07-24T06:12:34;98200.34;;;24.42;40.72
6506;BME280;3286;49.858;8.768;2023-07-24T06:15:02;98203.56;;;24.44;40.63
6506;BME280;3286;49.858;8.768;2023-07-24T06:17:29;98207.09;;;24.45;40.54
6506;BME280;3286;49.858;8.768;2023-07-24T06:19:56;98210.16;;;24.85;39.79
6506;BME280;3286;49.858;8.768;2023-07-24T06:22:23;98193.16;;;24.90;40.16
6506;BME280;3286;49.858;8.768;2023-07-24T06:24:49;98207.19;;;24.92;41.09
6506;BME280;3286;49.858;8.768;2023-07-24T06:27:16;98207.13;;;24.66;41.11
6506;BME280;3286;49.858;8.768;2023-07-24T06:29:43;98209.63;;;24.83;40.02
6506;BME280;3286;49.858;8.768;2023-07-24T06:32:11;98218.28;;;24.90;39.47
6506;BME280;3286;49.858;8.768;2023-07-24T06:34:37;98210.19;;;25.11;39.22
6506;BME280;3286;49.858;8.768;2023-07-24T06:37:04;98195.59;;;24.91;39.39
6506;BME280;3286;49.858;8.768;2023-07-24T06:39:31;98205.03;;;24.99;39.63
6506;BME280;3286;49.858;8.768;2023-07-24T06:41:58;98201.28;;;25.10;39.26
6506;BME280;3286;49.858;8.768;2023-07-24T06:44:25;98194.25;;;25.20;39.25
6506;BME280;3286;49.858;8.768;2023-07-24T06:46:54;98191.25;;;25.11;39.56
6506;BME280;3286;49.858;8.768;2023-07-24T06:49:22;98190.19;;;25.17;39.53
6506;BME280;3286;49.858;8.768;2023-07-24T06:51:48;98184.78;;;25.07;39.54
6506;BME280;3286;49.858;8.768;2023-07-24T06:54:15;98186.13;;;24.88;39.49
6506;BME280;3286;49.858;8.768;2023-07-24T06:56:42;98181.25;;;25.32;39.22
6506;BME280;3286;49.858;8.768;2023-07-24T06:59:08;98184.75;;;25.38;39.14
6506;BME280;3286;49.858;8.768;2023-07-24T07:01:35;98187.75;;;25.52;38.76
6506;BME280;3286;49.858;8.768;2023-07-24T07:04:03;98192.31;;;25.41;39.07
6506;BME280;3286;49.858;8.768;2023-07-24T07:06:31;98186.66;;;25.58;38.68
6506;BME280;3286;49.858;8.768;2023-07-24T07:08:57;98171.72;;;25.76;38.24
6506;BME280;3286;49.858;8.768;2023-07-24T07:11:24;98184.28;;;26.12;37.97
6506;BME280;3286;49.858;8.768;2023-07-24T07:13:51;98183.81;;;25.99;38.09
6506;BME280;3286;49.858;8.768;2023-07-24T07:16:17;98190.44;;;25.57;38.79
6506;BME280;3286;49.858;8.768;2023-07-24T07:18:48;98178.25;;;25.59;39.09
6506;BME280;3286;49.858;8.768;2023-07-24T07:21:14;98180.88;;;24.25;42.11
6506;BME280;3286;49.858;8.768;2023-07-24T07:23:43;98188.56;;;25.06;40.70
6506;BME280;3286;49.858;8.768;2023-07-24T07:26:09;98182.84;;;25.64;39.33
6506;BME280;3286;49.858;8.768;2023-07-24T07:28:36;98187.66;;;24.48;41.04
6506;BME280;3286;49.858;8.768;2023-07-24T07:31:03;98188.66;;;23.63;43.16
6506;BME280;3286;49.858;8.768;2023-07-24T07:33:29;98185.47;;;24.29;41.75
6506;BME280;3286;49.858;8.768;2023-07-24T07:35:56;98185.06;;;24.90;40.45
6506;BME280;3286;49.858;8.768;2023-07-24T07:38:25;98193.63;;;24.50;41.33
6506;BME280;3286;49.858;8.768;2023-07-24T07:40:53;98187.75;;;25.26;39.70
6506;BME280;3286;49.858;8.768;2023-07-24T07:43:19;98197.41;;;25.73;39.03
6506;BME280;3286;49.858;8.768;2023-07-24T07:45:47;98185.38;;;26.11;37.86
6506;BME280;3286;49.858;8.768;2023-07-24T07:48:13;98188.34;;;26.09;38.96
6506;BME280;3286;49.858;8.768;2023-07-24T07:50:40;98185.03;;;25.26;39.60
6506;BME280;3286;49.858;8.768;2023-07-24T07:53:07;98181.31;;;26.08;38.68
6506;BME280;3286;49.858;8.768;2023-07-24T07:55:33;98177.75;;;25.37;40.25
6506;BME280;3286;49.858;8.768;2023-07-24T07:58:01;98180.88;;;24.35;41.85
6506;BME280;3286;49.858;8.768;2023-07-24T08:00:28;98186.91;;;25.41;39.81
6506;BME280;3286;49.858;8.768;2023-07-24T08:02:55;98190.31;;;26.54;37.44
6506;BME280;3286;49.858;8.768;2023-07-24T08:05:22;98182.88;;;25.23;39.80
6506;BME280;3286;49.858;8.768;2023-07-24T08:07:48;98180.13;;;25.43;39.38
6506;BME280;3286;49.858;8.768;2023-07-24T08:10:15;98187.97;;;25.71;38.54
6506;BME280;3286;49.858;8.768;2023-07-24T08:12:42;98187.34;;;26.50;37.22
6506;BME280;3286;49.858;8.768;2023-07-24T08:15:11;98182.97;;;26.59;36.84
6506;BME280;3286;49.858;8.768;2023-07-24T08:17:37;98186.06;;;26.37;37.76
6506;BME280;3286;49.858;8.768;2023-07-24T08:20:05;98183.47;;;26.06;38.33
6506;BME280;3286;49.858;8.768;2023-07-24T08:22:32;98179.84;;;25.76;38.92
6506;BME280;3286;49.858;8.768;2023-07-24T08:24:59;98178.13;;;25.96;38.64
6506;BME280;3286;49.858;8.768;2023-07-24T08:27:25;98177.59;;;26.54;37.79
6506;BME280;3286;49.858;8.768;2023-07-24T08:29:52;98178.59;;;27.03;36.55
6506;BME280;3286;49.858;8.768;2023-07-24T08:32:20;98166.44;;;26.61;37.89
6506;BME280;3286;49.858;8.768;2023-07-24T08:34:47;98166.22;;;26.52;37.45
6506;BME280;3286;49.858;8.768;2023-07-24T08:37:13;98152.66;;;26.92;37.04
6506;BME280;3286;49.858;8.768;2023-07-24T08:39:40;98156.34;;;27.07;36.74
6506;BME280;3286;49.858;8.768;2023-07-24T08:42:08;98158.91;;;26.93;36.68
6506;BME280;3286;49.858;8.768;2023-07-24T08:44:36;98161.72;;;26.37;37.45
6506;BME280;3286;49.858;8.768;2023-07-24T08:47:04;98150.28;;;25.85;38.67
6506;BME280;3286;49.858;8.768;2023-07-24T08:49:33;98150.91;;;25.71;38.90
6506;BME280;3286;49.858;8.768;2023-07-24T08:52:01;98149.00;;;25.77;39.02
6506;BME280;3286;49.858;8.768;2023-07-24T08:54:30;98154.25;;;26.08;38.47
6506;BME280;3286;49.858;8.768;2023-07-24T08:56:57;98159.38;;;26.20;38.47
6506;BME280;3286;49.858;8.768;2023-07-24T08:59:23;98153.78;;;25.96;38.54
6506;BME280;3286;49.858;8.768;2023-07-24T09:01:50;98162.22;;;25.84;39.11
6506;BME280;3286;49.858;8.768;2023-07-24T09:04:17;98170.22;;;26.10;38.88
6506;BME280;3286;49.858;8.768;2023-07-24T09:06:45;98173.50;;;26.01;39.00
6506;BME280;3286;49.858;8.768;2023-07-24T09:09:13;98171.75;;;25.60;39.93
6506;BME280;3286;49.858;8.768;2023-07-24T09:11:50;98164.47;;;25.61;39.91
6506;BME280;3286;49.858;8.768;2023-07-24T09:14:21;98158.91;;;26.53;39.45
6506;BME280;3286;49.858;8.768;2023-07-24T09:16:47;98156.25;;;26.42;39.86
6506;BME280;3286;49.858;8.768;2023-07-24T09:19:19;98139.84;;;26.68;40.10
6506;BME280;3286;49.858;8.768;2023-07-24T09:21:47;98130.03;;;26.38;39.64
6506;BME280;3286;49.858;8.768;2023-07-24T09:24:14;98131.66;;;26.39;40.10
6506;BME280;3286;49.858;8.768;2023-07-24T09:26:51;98123.81;;;26.72;39.44
6506;BME280;3286;49.858;8.768;2023-07-24T09:29:18;98117.47;;;26.52;39.05
6506;BME280;3286;49.858;8.768;2023-07-24T09:31:45;98113.50;;;26.79;38.83
6506;BME280;3286;49.858;8.768;2023-07-24T09:34:16;98102.28;;;26.56;39.88
6506;BME280;3286;49.858;8.768;2023-07-24T09:36:43;98082.31;;;26.47;39.90
6506;BME280;3286;49.858;8.768;2023-07-24T09:39:11;98085.63;;;26.39;39.91
6506;BME280;3286;49.858;8.768;2023-07-24T09:41:38;98078.97;;;26.26;39.81
6506;BME280;3286;49.858;8.768;2023-07-24T09:44:06;98085.59;;;26.44;39.90
6506;BME280;3286;49.858;8.768;2023-07-24T09:46:33;98102.84;;;26.13;41.24
6506;BME280;3286;49.858;8.768;2023-07-24T09:49:00;98094.94;;;26.22;40.66
6506;BME280;3286;49.858;8.768;2023-07-24T09:51:29;98088.72;;;26.22;41.01
6506;BME280;3286;49.858;8.768;2023-07-24T09:54:01;98086.91;;;26.07;41.53
6506;BME280;3286;49.858;8.768;2023-07-24T09:56:32;98085.88;;;26.42;40.89
6506;BME280;3286;49.858;8.768;2023-07-24T09:59:00;98102.56;;;26.55;40.19
6506;BME280;3286;49.858;8.768;2023-07-24T10:01:31;98115.09;;;25.95;40.99
6506;BME280;3286;49.858;8.768;2023-07-24T10:03:58;98103.28;;;26.66;40.64
6506;BME280;3286;49.858;8.768;2023-07-24T10:06:26;98113.47;;;26.44;40.04
6506;BME280;3286;49.858;8.768;2023-07-24T10:08:54;98114.06;;;26.76;39.34
6506;BME280;3286;49.858;8.768;2023-07-24T10:11:21;98117.00;;;25.95;41.57
6506;BME280;3286;49.858;8.768;2023-07-24T10:13:50;98119.09;;;26.03;41.74
6506;BME280;3286;49.858;8.768;2023-07-24T10:16:18;98098.47;;;26.23;41.87
6506;BME280;3286;49.858;8.768;2023-07-24T10:18:45;98096.75;;;25.82;42.93
6506;BME280;3286;49.858;8.768;2023-07-24T10:21:13;98101.91;;;25.83;43.49
6506;BME280;3286;49.858;8.768;2023-07-24T10:23:42;98107.41;;;26.13;41.54
6506;BME280;3286;49.858;8.768;2023-07-24T10:26:09;98095.44;;;25.79;43.54
6506;BME280;3286;49.858;8.768;2023-07-24T10:28:37;98109.34;;;26.07;42.78
6506;BME280;3286;49.858;8.768;2023-07-24T10:31:06;98100.53;;;25.86;43.35
6506;BME280;3286;49.858;8.768;2023-07-24T10:33:35;98111.72;;;25.64;44.00
6506;BME280;3286;49.858;8.768;2023-07-24T10:36:05;98112.84;;;25.47;44.60
6506;BME280;3286;49.858;8.768;2023-07-24T10:38:35;98095.75;;;25.67;44.19
6506;BME280;3286;49.858;8.768;2023-07-24T10:41:03;98104.84;;;25.92;42.66
6506;BME280;3286;49.858;8.768;2023-07-24T10:43:40;98099.22;;;25.78;43.59
6506;BME280;3286;49.858;8.768;2023-07-24T10:46:09;98104.25;;;26.45;41.70
6506;BME280;3286;49.858;8.768;2023-07-24T10:48:36;98106.13;;;26.00;43.06
6506;BME280;3286;49.858;8.768;2023-07-24T10:51:07;98106.78;;;26.37;42.25
6506;BME280;3286;49.858;8.768;2023-07-24T10:53:34;98102.38;;;26.46;41.18
6506;BME280;3286;49.858;8.768;2023-07-24T10:56:01;98087.75;;;26.47;42.00
6506;BME280;3286;49.858;8.768;2023-07-24T10:58:29;98088.91;;;26.36;42.41
6506;BME280;3286;49.858;8.768;2023-07-24T11:00:56;98084.41;;;26.55;41.55
6506;BME280;3286;49.858;8.768;2023-07-24T11:03:27;98088.78;;;26.86;40.71
6506;BME280;3286;49.858;8.768;2023-07-24T11:05:54;98086.41;;;27.33;40.18
6506;BME280;3286;49.858;8.768;2023-07-24T11:08:21;98076.06;;;26.52;41.43
6506;BME280;3286;49.858;8.768;2023-07-24T11:10:48;98079.50;;;26.92;40.81
6506;BME280;3286;49.858;8.768;2023-07-24T11:13:16;98087.34;;;27.23;39.59
6506;BME280;3286;49.858;8.768;2023-07-24T11:15:43;98092.59;;;27.14;39.81
6506;BME280;3286;49.858;8.768;2023-07-24T11:18:09;98094.16;;;26.56;41.40
6506;BME280;3286;49.858;8.768;2023-07-24T11:20:38;98087.16;;;26.85;40.34
6506;BME280;3286;49.858;8.768;2023-07-24T11:23:09;98086.88;;;27.40;39.21
6506;BME280;3286;49.858;8.768;2023-07-24T11:25:36;98081.50;;;27.11;39.71
6506;BME280;3286;49.858;8.768;2023-07-24T11:28:04;98080.25;;;26.68;40.34
6506;BME280;3286;49.858;8.768;2023-07-24T11:30:31;98081.63;;;26.31;41.60
6506;BME280;3286;49.858;8.768;2023-07-24T11:33:00;98077.50;;;26.39;41.01
6506;BME280;3286;49.858;8.768;2023-07-24T11:35:29;98064.16;;;26.53;41.24
6506;BME280;3286;49.858;8.768;2023-07-24T11:37:58;98059.91;;;25.96;42.09
6506;BME280;3286;49.858;8.768;2023-07-24T11:40:31;98056.91;;;26.72;39.95
6506;BME280;3286;49.858;8.768;2023-07-24T11:42:58;98057.84;;;26.92;40.16
6506;BME280;3286;49.858;8.768;2023-07-24T11:45:24;98052.34;;;27.02;40.00
6506;BME280;3286;49.858;8.768;2023-07-24T11:47:51;98053.38;;;27.55;39.41
6506;BME280;3286;49.858;8.768;2023-07-24T11:50:19;98058.28;;;27.53;39.01
6506;BME280;3286;49.858;8.768;2023-07-24T11:52:47;98039.75;;;27.12;38.16
6506;BME280;3286;49.858;8.768;2023-07-24T11:55:18;98041.28;;;26.35;39.96
6506;BME280;3286;49.858;8.768;2023-07-24T11:57:55;98047.63;;;26.84;38.70
6506;BME280;3286;49.858;8.768;2023-07-24T12:00:23;98045.94;;;26.58;40.02
6506;BME280;3286;49.858;8.768;2023-07-24T12:02:50;98045.28;;;26.37;40.55
6506;BME280;3286;49.858;8.768;2023-07-24T12:05:17;98037.50;;;27.19;39.67
6506;BME280;3286;49.858;8.768;2023-07-24T12:07:44;98022.75;;;27.50;37.75
6506;BME280;3286;49.858;8.768;2023-07-24T12:10:12;98018.78;;;27.66;38.18
6506;BME280;3286;49.858;8.768;2023-07-24T12:12:44;98024.81;;;27.82;37.77
6506;BME280;3286;49.858;8.768;2023-07-24T12:15:12;98034.31;;;27.60;38.04
6506;BME280;3286;49.858;8.768;2023-07-24T12:17:39;98018.56;;;28.20;37.15
6506;BME280;3286;49.858;8.768;2023-07-24T12:20:07;98014.31;;;27.56;38.27
6506;BME280;3286;49.858;8.768;2023-07-24T12:22:35;98007.25;;;26.82;39.97
6506;BME280;3286;49.858;8.768;2023-07-24T12:25:01;98004.44;;;27.41;38.76
6506;BME280;3286;49.858;8.768;2023-07-24T12:27:28;97999.91;;;27.37;38.62
6506;BME280;3286;49.858;8.768;2023-07-24T12:30:04;98002.34;;;27.57;38.63
6506;BME280;3286;49.858;8.768;2023-07-24T12:32:31;97998.13;;;27.70;38.99
6506;BME280;3286;49.858;8.768;2023-07-24T12:34:58;98009.16;;;27.74;38.55
6506;BME280;3286;49.858;8.768;2023-07-24T12:37:25;97997.81;;;27.72;37.72
6506;BME280;3286;49.858;8.768;2023-07-24T12:39:51;98006.91;;;28.00;37.69
6506;BME280;3286;49.858;8.768;2023-07-24T12:42:18;98000.47;;;27.77;37.83
6506;BME280;3286;49.858;8.768;2023-07-24T12:44:45;97991.34;;;28.06;37.62
6506;BME280;3286;49.858;8.768;2023-07-24T12:47:13;97994.78;;;28.12;38.07
6506;BME280;3286;49.858;8.768;2023-07-24T12:49:39;97995.69;;;27.88;38.70
6506;BME280;3286;49.858;8.768;2023-07-24T12:52:07;97990.66;;;27.81;39.20
6506;BME280;3286;49.858;8.768;2023-07-24T12:54:34;97984.00;;;28.59;37.64
6506;BME280;3286;49.858;8.768;2023-07-24T12:57:01;97975.25;;;28.62;38.27
6506;BME280;3286;49.858;8.768;2023-07-24T12:59:27;97969.88;;;28.43;37.73
6506;BME280;3286;49.858;8.768;2023-07-24T13:01:54;97974.28;;;29.00;36.06
6506;BME280;3286;49.858;8.768;2023-07-24T13:04:22;97982.97;;;28.69;36.32
6506;BME280;3286;49.858;8.768;2023-07-24T13:06:49;97991.13;;;28.69;35.84
6506;BME280;3286;49.858;8.768;2023-07-24T13:09:17;97983.16;;;28.58;36.46
6506;BME280;3286;49.858;8.768;2023-07-24T13:11:44;97975.59;;;27.89;37.31
6506;BME280;3286;49.858;8.768;2023-07-24T13:14:12;97966.91;;;28.25;37.09
6506;BME280;3286;49.858;8.768;2023-07-24T13:16:39;97954.09;;;27.93;38.45
6506;BME280;3286;49.858;8.768;2023-07-24T13:19:06;97955.22;;;28.58;36.97
6506;BME280;3286;49.858;8.768;2023-07-24T13:21:34;97952.81;;;28.23;37.71
6506;BME280;3286;49.858;8.768;2023-07-24T13:24:01;97947.94;;;28.53;36.24
6506;BME280;3286;49.858;8.768;2023-07-24T13:26:28;97953.81;;;28.74;35.82